Portada
METAR-TAF:

METAR-TAF

Aeroports :

Sebring, Florida, Estats Units d'Amèrica

latitud: 27-27-23N, longitud: 081-20-33W, altitud: 19 m

Observació

L'informe es va fer fa 24 minuts, a les 06:35 UTC
Vent 6 kt del Oest/Nord-Oest
Temperatura 25°C
Humitat 94%
Pressió 1014 hPa
Visibilitat: 16.1 km
Cel clar

METAR: KSEF 160635Z AUTO 30006KT 10SM CLR 25/24 A2994 RMK AO2 T02460235

Hora: 02:59 (06:59 UTC)


TAF: manca

Observacions i pronòstics meteorològics de més de 4000 aeroports (METAR i TAF).

Les estacions disponibles són els punts grocs i vermells al mapa.

Posi el ratolí al punt desitjat per veure el nom de l'estació.

Feu clic per veure les observacions i els pronòstics meteorològics.

Per canviar el mapa: feu clic els botons verds amb una creu de color negre per apropar; al botó verd amb un guió per allunyar la imatge; o en les fletxes verdes per a mapes adjacents.


METAR-TAF: